createdAt,value
2023-01-29T06:01:18.971Z,-2.00
2023-01-29T06:03:46.771Z,-2.03
2023-01-29T06:06:13.922Z,-1.99
2023-01-29T06:08:40.867Z,-2.06
2023-01-29T06:11:09.521Z,-2.03
2023-01-29T06:13:36.238Z,-2.22
2023-01-29T06:16:07.730Z,-2.26
2023-01-29T06:18:35.511Z,-2.21
2023-01-29T06:21:04.366Z,-2.29
2023-01-29T06:23:31.616Z,-2.22
2023-01-29T06:26:04.120Z,-2.11
2023-01-29T06:28:31.036Z,-2.20
2023-01-29T06:31:08.258Z,-2.09
2023-01-29T06:33:43.439Z,-1.94
2023-01-29T06:36:10.759Z,-1.93
2023-01-29T06:38:37.332Z,-1.87
2023-01-29T06:41:12.639Z,-1.97
2023-01-29T06:43:39.885Z,-1.87
2023-01-29T06:46:08.794Z,-1.93
2023-01-29T06:48:35.957Z,-2.00
2023-01-29T06:51:05.880Z,-2.00
2023-01-29T06:53:33.958Z,-1.95
2023-01-29T06:56:01.169Z,-1.91
2023-01-29T06:58:28.936Z,-1.91
2023-01-29T07:01:03.534Z,-1.90
2023-01-29T07:03:30.156Z,-1.94
2023-01-29T07:05:57.324Z,-1.97
2023-01-29T07:08:23.925Z,-1.92
2023-01-29T07:10:51.123Z,-1.99
2023-01-29T07:13:17.748Z,-2.00
2023-01-29T07:15:44.907Z,-2.01
2023-01-29T07:18:14.323Z,-2.04
2023-01-29T07:20:44.494Z,-1.97
2023-01-29T07:23:13.325Z,-1.92
2023-01-29T07:25:42.140Z,-1.94
2023-01-29T07:28:09.211Z,-1.89
2023-01-29T07:30:37.201Z,-1.84
2023-01-29T07:33:07.428Z,-1.73
2023-01-29T07:35:46.839Z,-1.81
2023-01-29T07:38:15.113Z,-1.71
2023-01-29T07:40:42.432Z,-1.64
2023-01-29T07:43:11.160Z,-1.71
2023-01-29T07:45:39.897Z,-1.69
2023-01-29T07:48:09.924Z,-1.70
2023-01-29T07:50:37.374Z,-1.78
2023-01-29T07:53:04.264Z,-1.62
2023-01-29T07:55:32.996Z,-1.63
2023-01-29T07:58:02.007Z,-1.61
2023-01-29T08:00:30.572Z,-1.67
2023-01-29T08:03:13.102Z,-1.81
2023-01-29T08:05:40.478Z,-1.80
2023-01-29T08:08:08.007Z,-1.80
2023-01-29T08:10:36.669Z,-1.82
2023-01-29T08:13:05.143Z,-1.84
2023-01-29T08:15:32.916Z,-1.83
2023-01-29T08:18:01.272Z,-1.80
2023-01-29T08:20:28.697Z,-1.73
2023-01-29T08:23:00.941Z,-1.76
2023-01-29T08:25:28.212Z,-1.81
2023-01-29T08:28:00.562Z,-1.80
2023-01-29T08:30:30.413Z,-1.66
2023-01-29T08:32:58.112Z,-1.62
2023-01-29T08:35:32.601Z,-1.61
2023-01-29T08:38:01.714Z,-1.55
2023-01-29T08:40:31.762Z,-1.48
2023-01-29T08:43:02.164Z,-1.50
2023-01-29T08:45:30.223Z,-1.34
2023-01-29T08:47:58.768Z,-1.37
2023-01-29T08:50:26.970Z,-1.32
2023-01-29T08:52:59.494Z,-1.20
2023-01-29T08:55:28.737Z,-1.10
2023-01-29T08:58:14.576Z,-1.16
2023-01-29T09:00:41.533Z,-1.20
2023-01-29T09:03:08.795Z,-1.12
2023-01-29T09:05:37.948Z,-1.06
2023-01-29T09:08:06.248Z,-1.19
2023-01-29T09:10:33.526Z,-1.22
2023-01-29T09:13:00.782Z,-1.15
2023-01-29T09:15:28.240Z,-1.13
2023-01-29T09:17:55.423Z,-1.07
2023-01-29T09:20:22.215Z,-1.04
2023-01-29T09:22:51.433Z,-0.93
2023-01-29T09:25:18.363Z,-0.92
2023-01-29T09:27:45.832Z,-0.84
2023-01-29T09:30:12.744Z,-0.85
2023-01-29T09:32:55.492Z,-0.85
2023-01-29T09:35:23.503Z,-0.79
2023-01-29T09:37:51.909Z,-0.71
2023-01-29T09:40:38.543Z,-0.75
2023-01-29T09:43:20.699Z,-0.68
2023-01-29T09:45:57.260Z,-0.61
2023-01-29T09:48:28.960Z,-0.61
2023-01-29T09:50:58.767Z,-0.62
2023-01-29T09:53:30.595Z,-0.52
2023-01-29T09:56:06.152Z,-0.43
2023-01-29T09:58:40.142Z,-0.42
2023-01-29T10:01:28.001Z,-0.37
2023-01-29T10:04:36.617Z,-0.49
2023-01-29T10:07:34.957Z,-0.41
2023-01-29T10:10:22.403Z,-0.33
2023-01-29T10:13:15.886Z,-0.23
2023-01-29T10:15:58.856Z,-0.24
2023-01-29T10:18:45.241Z,-0.32
2023-01-29T10:21:27.016Z,-0.16
2023-01-29T10:24:17.073Z,-0.09
2023-01-29T10:26:43.675Z,-0.08
2023-01-29T10:29:18.542Z,-0.19
2023-01-29T10:31:49.757Z,-0.10
2023-01-29T10:34:52.452Z,-0.21
2023-01-29T10:37:24.254Z,0.02
2023-01-29T10:39:51.651Z,-0.08
2023-01-29T10:42:22.047Z,-0.01
2023-01-29T10:45:10.422Z,0.12
2023-01-29T10:48:09.803Z,0.16
2023-01-29T10:50:43.420Z,0.26
2023-01-29T10:53:44.384Z,0.30
2023-01-29T10:57:02.189Z,0.31
2023-01-29T11:00:11.788Z,0.35
2023-01-29T11:02:46.092Z,0.33
2023-01-29T11:05:43.981Z,0.37
2023-01-29T11:08:18.379Z,0.38
2023-01-29T11:11:08.823Z,0.45
2023-01-29T11:13:53.906Z,0.43
2023-01-29T11:16:20.820Z,0.50
2023-01-29T11:19:00.429Z,0.44
2023-01-29T11:21:29.321Z,0.43
2023-01-29T11:24:17.876Z,0.37
2023-01-29T11:26:48.326Z,0.32
2023-01-29T11:29:34.584Z,0.40
2023-01-29T11:32:05.587Z,0.42
2023-01-29T11:34:32.984Z,0.43
2023-01-29T11:37:01.887Z,0.55
2023-01-29T11:39:32.717Z,0.56
2023-01-29T11:42:04.473Z,0.58
2023-01-29T11:44:42.233Z,0.68
2023-01-29T11:47:11.861Z,0.73
2023-01-29T11:49:41.592Z,0.69
2023-01-29T11:52:10.036Z,0.71
2023-01-29T11:54:47.471Z,0.71
2023-01-29T11:57:28.863Z,0.79
2023-01-29T12:00:01.135Z,0.78
2023-01-29T12:02:38.763Z,0.86
2023-01-29T12:05:18.634Z,0.87
2023-01-29T12:07:49.445Z,0.85
2023-01-29T12:10:38.408Z,0.94
2023-01-29T12:13:05.842Z,0.93
2023-01-29T12:15:33.467Z,0.92
2023-01-29T12:18:16.885Z,0.86
2023-01-29T12:20:51.921Z,0.90
2023-01-29T12:23:21.815Z,0.99
2023-01-29T12:26:07.665Z,1.01
2023-01-29T12:29:05.979Z,1.02
2023-01-29T12:31:43.831Z,1.01
2023-01-29T12:34:16.964Z,1.00
2023-01-29T12:36:59.727Z,1.00
2023-01-29T12:39:27.304Z,1.09
2023-01-29T12:42:04.301Z,1.07
2023-01-29T12:44:43.983Z,1.02
2023-01-29T12:47:19.020Z,1.07
2023-01-29T12:49:58.231Z,1.12
2023-01-29T12:53:03.705Z,1.07
2023-01-29T12:55:38.561Z,1.12
2023-01-29T12:58:12.955Z,1.20
2023-01-29T13:00:46.259Z,1.23
2023-01-29T13:03:45.038Z,1.17
2023-01-29T13:06:17.339Z,1.21
2023-01-29T13:09:02.028Z,1.26
2023-01-29T13:11:40.224Z,1.27
2023-01-29T13:14:13.572Z,1.26
2023-01-29T13:16:47.615Z,1.23
2023-01-29T13:19:37.729Z,1.26
2023-01-29T13:22:15.998Z,1.27
2023-01-29T13:24:49.956Z,1.26
2023-01-29T13:27:31.894Z,1.28
2023-01-29T13:30:00.123Z,1.29
2023-01-29T13:32:29.530Z,1.26
2023-01-29T13:35:12.403Z,1.29
2023-01-29T13:37:46.588Z,1.30
2023-01-29T13:40:21.032Z,1.31
2023-01-29T13:42:49.920Z,1.31
2023-01-29T13:45:20.344Z,1.37
2023-01-29T13:47:48.651Z,1.40
2023-01-29T13:50:20.185Z,1.37
2023-01-29T13:52:55.169Z,1.29
2023-01-29T13:55:31.423Z,1.29
2023-01-29T13:58:02.668Z,1.29
2023-01-29T14:00:36.001Z,1.31
2023-01-29T14:03:05.232Z,1.24
2023-01-29T14:05:32.474Z,1.26
2023-01-29T14:08:01.811Z,1.30
2023-01-29T14:10:32.811Z,1.27
2023-01-29T14:13:11.682Z,1.22
2023-01-29T14:15:42.007Z,1.24
2023-01-29T14:18:08.543Z,1.28
2023-01-29T14:20:47.971Z,1.20
2023-01-29T14:23:36.537Z,1.28
2023-01-29T14:26:06.644Z,1.28
2023-01-29T14:28:34.212Z,1.15
2023-01-29T14:31:03.261Z,1.21
2023-01-29T14:33:43.426Z,1.11
2023-01-29T14:36:14.558Z,1.17
2023-01-29T14:38:48.431Z,1.15
2023-01-29T14:41:21.742Z,1.12
2023-01-29T14:43:48.383Z,1.09
2023-01-29T14:46:33.620Z,1.17
2023-01-29T14:49:00.871Z,1.20
2023-01-29T14:51:34.722Z,1.14
2023-01-29T14:54:15.434Z,1.12
2023-01-29T14:56:58.775Z,1.15
2023-01-29T14:59:53.472Z,1.16
2023-01-29T15:02:27.179Z,1.18
2023-01-29T15:04:58.328Z,1.13
2023-01-29T15:07:39.935Z,1.06
2023-01-29T15:10:22.716Z,1.08
2023-01-29T15:13:01.594Z,1.05
2023-01-29T15:15:52.796Z,1.02
2023-01-29T15:18:31.644Z,1.01
2023-01-29T15:21:11.812Z,0.98
2023-01-29T15:23:40.768Z,0.93
2023-01-29T15:26:12.409Z,0.90
2023-01-29T15:28:40.147Z,0.82
2023-01-29T15:31:16.965Z,0.84
2023-01-29T15:33:48.122Z,0.92
2023-01-29T15:36:29.839Z,0.94
2023-01-29T15:39:11.728Z,0.92
2023-01-29T15:41:39.221Z,0.91
2023-01-29T15:44:24.488Z,0.97
2023-01-29T15:46:56.152Z,1.00
2023-01-29T15:49:32.984Z,0.93
2023-01-29T15:52:04.963Z,0.82
2023-01-29T15:54:33.547Z,0.85
2023-01-29T15:57:05.521Z,0.90
2023-01-29T15:59:36.587Z,0.83
2023-01-29T16:02:29.846Z,0.88
2023-01-29T16:04:56.567Z,0.81
2023-01-29T16:07:24.012Z,0.83
2023-01-29T16:09:52.712Z,0.83
2023-01-29T16:12:20.372Z,0.88
2023-01-29T16:14:49.679Z,0.80
2023-01-29T16:17:27.536Z,0.75
2023-01-29T16:19:59.214Z,0.67
2023-01-29T16:22:33.178Z,0.77
2023-01-29T16:25:12.332Z,0.77
2023-01-29T16:27:43.519Z,0.77
2023-01-29T16:30:16.023Z,0.82
2023-01-29T16:32:43.438Z,0.82
2023-01-29T16:35:16.944Z,0.82
2023-01-29T16:37:49.195Z,0.80
2023-01-29T16:40:26.706Z,0.76
2023-01-29T16:43:42.427Z,0.72
2023-01-29T16:46:21.012Z,0.73
2023-01-29T16:48:47.985Z,0.73
2023-01-29T16:51:39.554Z,0.75
2023-01-29T16:54:18.309Z,0.67
2023-01-29T16:56:51.554Z,0.71
2023-01-29T16:59:29.111Z,0.76
2023-01-29T17:01:56.616Z,0.74
2023-01-29T17:04:23.161Z,0.71
2023-01-29T17:06:56.869Z,0.70
2023-01-29T17:09:29.145Z,0.70
2023-01-29T17:11:59.039Z,0.74
2023-01-29T17:14:26.717Z,0.73
2023-01-29T17:17:03.585Z,0.70
2023-01-29T17:19:30.331Z,0.72
2023-01-29T17:21:59.814Z,0.75
2023-01-29T17:24:26.652Z,0.73
2023-01-29T17:26:54.627Z,0.69
2023-01-29T17:29:27.861Z,0.72
2023-01-29T17:31:58.205Z,0.68
2023-01-29T17:34:24.980Z,0.68
2023-01-29T17:36:52.708Z,0.64
2023-01-29T17:39:21.671Z,0.73
2023-01-29T17:41:51.336Z,0.74
2023-01-29T17:44:18.435Z,0.76
2023-01-29T17:46:46.747Z,0.72
2023-01-29T17:49:28.501Z,0.71
2023-01-29T17:51:56.697Z,0.74
2023-01-29T17:54:25.726Z,0.77
2023-01-29T17:56:53.339Z,0.79
2023-01-29T17:59:22.610Z,0.73
2023-01-29T18:01:51.053Z,0.76
2023-01-29T18:04:17.861Z,0.80
2023-01-29T18:06:50.853Z,0.76
2023-01-29T18:09:20.657Z,0.74
2023-01-29T18:11:48.816Z,0.71
2023-01-29T18:14:15.779Z,0.72
2023-01-29T18:16:45.252Z,0.69
2023-01-29T18:19:22.216Z,0.69
2023-01-29T18:21:50.701Z,0.66
2023-01-29T18:24:17.766Z,0.62
2023-01-29T18:26:44.750Z,0.55
2023-01-29T18:29:11.876Z,0.58
2023-01-29T18:31:38.589Z,0.59
2023-01-29T18:34:06.012Z,0.60
2023-01-29T18:36:32.598Z,0.62
2023-01-29T18:38:59.824Z,0.61
2023-01-29T18:41:26.600Z,0.60
2023-01-29T18:43:58.686Z,0.54
2023-01-29T18:46:25.585Z,0.47
2023-01-29T18:48:53.165Z,0.48
2023-01-29T18:51:19.987Z,0.41
2023-01-29T18:54:03.027Z,0.50
2023-01-29T18:56:30.506Z,0.53
2023-01-29T18:58:57.274Z,0.54
2023-01-29T19:01:25.060Z,0.57
2023-01-29T19:03:52.336Z,0.57
2023-01-29T19:06:19.542Z,0.56
2023-01-29T19:08:47.588Z,0.59
2023-01-29T19:11:17.352Z,0.62
2023-01-29T19:13:44.978Z,0.61
2023-01-29T19:16:13.837Z,0.62
2023-01-29T19:18:40.804Z,0.64
2023-01-29T19:21:10.499Z,0.64
2023-01-29T19:23:38.600Z,0.67
2023-01-29T19:26:05.940Z,0.67
2023-01-29T19:28:33.715Z,0.59
2023-01-29T19:31:01.374Z,0.62
2023-01-29T19:33:30.482Z,0.59
2023-01-29T19:35:58.881Z,0.63
2023-01-29T19:38:27.650Z,0.60
2023-01-29T19:40:55.297Z,0.70
2023-01-29T19:43:22.425Z,0.66
2023-01-29T19:45:50.893Z,0.66
2023-01-29T19:48:22.137Z,0.68
2023-01-29T19:50:58.226Z,0.73
2023-01-29T19:53:28.759Z,0.72
2023-01-29T19:56:04.714Z,0.73
2023-01-29T19:58:32.412Z,0.72
2023-01-29T20:01:03.608Z,0.72
2023-01-29T20:03:32.719Z,0.73
2023-01-29T20:06:07.437Z,0.77
2023-01-29T20:08:35.004Z,0.77
2023-01-29T20:11:04.477Z,0.81
2023-01-29T20:13:32.358Z,0.78
2023-01-29T20:16:03.461Z,0.72
2023-01-29T20:18:30.355Z,0.72
2023-01-29T20:20:59.160Z,0.72
2023-01-29T20:23:37.304Z,0.73
2023-01-29T20:26:07.557Z,0.69
2023-01-29T20:28:35.107Z,0.73
2023-01-29T20:31:03.139Z,0.70
2023-01-29T20:33:30.698Z,0.78
2023-01-29T20:35:59.523Z,0.78
2023-01-29T20:38:36.530Z,0.83
2023-01-29T20:41:09.201Z,0.81
2023-01-29T20:43:36.240Z,0.82
2023-01-29T20:46:07.105Z,0.80
2023-01-29T20:48:36.222Z,0.82
2023-01-29T20:51:15.846Z,0.83
2023-01-29T20:53:45.435Z,0.78
2023-01-29T20:56:14.440Z,0.76
2023-01-29T20:58:41.411Z,0.81
2023-01-29T21:01:14.600Z,0.86
2023-01-29T21:03:41.726Z,0.74
2023-01-29T21:06:10.655Z,0.85
2023-01-29T21:08:37.960Z,0.83
2023-01-29T21:11:06.589Z,0.83
2023-01-29T21:13:36.597Z,0.87
2023-01-29T21:16:04.594Z,0.88
2023-01-29T21:18:32.198Z,0.87
2023-01-29T21:20:59.532Z,0.90
2023-01-29T21:23:26.132Z,0.89
2023-01-29T21:25:53.348Z,0.82
2023-01-29T21:28:19.950Z,0.95
